Time;durP1;ratioP1;P1;durP2;ratioP2;P2;SDS_P1;SDS_P2;PMS_P1;PMS_P2;Temp;Humidity;BMP_temperature;BMP_pressure;BME280_temperature;BME280_humidity;BME280_pressure;Samples;Min_cycle;Max_cycle;Signal;HPM_P1;HPM_P2
2023/10/20 00:00:18;;;;;;;29.48;15.38;;;;;;;;;;2064513;28;20062;-75
2023/10/20 00:01:39;;;;;;;30.83;18.58;;;;;;;;;;2065376;28;20022;-75
2023/10/20 00:03:01;;;;;;;34.25;17.38;;;;;;;;;;2061645;28;20454;-76
2023/10/20 00:04:21;;;;;;;29.83;15.95;;;;;;;;;;2067022;28;20027;-75
2023/10/20 00:05:42;;;;;;;29.35;15.35;;;;;;;;;;2063577;28;20034;-75
2023/10/20 00:07:03;;;;;;;25.58;15.88;;;;;;;;;;2066164;28;20022;-75
2023/10/20 00:08:24;;;;;;;28.08;15.88;;;;;;;;;;2066821;28;20147;-75
2023/10/20 00:09:45;;;;;;;36.85;17.83;;;;;;;;;;2067293;28;20026;-75
2023/10/20 00:11:07;;;;;;;33.63;16.95;;;;;;;;;;2064314;28;20402;-76
2023/10/20 00:12:28;;;;;;;34.85;17.00;;;;;;;;;;2070587;28;20421;-75
2023/10/20 00:13:49;;;;;;;30.58;16.98;;;;;;;;;;2069160;28;20030;-75
2023/10/20 00:15:13;;;;;;;30.50;15.48;;;;;;;;;;2059013;28;20034;-76
2023/10/20 00:16:34;;;;;;;25.65;15.98;;;;;;;;;;2065931;28;20034;-75
2023/10/20 00:17:55;;;;;;;34.63;17.20;;;;;;;;;;2064103;28;20026;-76
2023/10/20 00:19:18;;;;;;;27.25;14.88;;;;;;;;;;2056514;28;20482;-75
2023/10/20 00:20:39;;;;;;;29.65;16.38;;;;;;;;;;2061674;28;20038;-76
2023/10/20 00:22:00;;;;;;;26.02;15.10;;;;;;;;;;2066089;28;20038;-75
2023/10/20 00:23:21;;;;;;;30.30;15.40;;;;;;;;;;2068560;28;20410;-76
2023/10/20 00:24:44;;;;;;;29.98;15.27;;;;;;;;;;2066227;28;20031;-75
2023/10/20 00:26:04;;;;;;;28.08;16.10;;;;;;;;;;2072656;28;20108;-75
2023/10/20 00:27:25;;;;;;;27.38;15.82;;;;;;;;;;2068563;28;20412;-76
2023/10/20 00:28:46;;;;;;;31.23;16.05;;;;;;;;;;2071075;28;20037;-75
2023/10/20 00:30:07;;;;;;;31.38;16.02;;;;;;;;;;2066898;28;20037;-75
2023/10/20 00:31:29;;;;;;;27.95;15.80;;;;;;;;;;2066318;28;20045;-76
2023/10/20 00:32:50;;;;;;;29.48;15.13;;;;;;;;;;2064192;28;20045;-75
2023/10/20 00:34:11;;;;;;;31.38;16.08;;;;;;;;;;2065453;28;20057;-75
2023/10/20 00:35:32;;;;;;;33.80;16.02;;;;;;;;;;2066776;28;20030;-75
2023/10/20 00:36:53;;;;;;;27.00;15.32;;;;;;;;;;2063378;28;20409;-75
2023/10/20 00:38:14;;;;;;;25.23;15.02;;;;;;;;;;2065334;28;20057;-75
2023/10/20 00:39:35;;;;;;;28.20;15.43;;;;;;;;;;2058107;28;20023;-75
2023/10/20 00:40:56;;;;;;;26.67;15.15;;;;;;;;;;2063389;28;20493;-75
2023/10/20 00:42:18;;;;;;;25.77;14.95;;;;;;;;;;2068098;28;20050;-76
2023/10/20 00:43:39;;;;;;;25.73;15.07;;;;;;;;;;2073545;28;20068;-75
2023/10/20 00:45:00;;;;;;;25.08;14.32;;;;;;;;;;2063737;28;20057;-75
2023/10/20 00:46:21;;;;;;;28.33;15.38;;;;;;;;;;2062724;28;20038;-76
2023/10/20 00:47:44;;;;;;;24.20;13.52;;;;;;;;;;2065758;28;20065;-75
2023/10/20 00:49:05;;;;;;;26.15;14.85;;;;;;;;;;2066077;28;20501;-75
2023/10/20 00:50:26;;;;;;;26.02;14.45;;;;;;;;;;2067986;28;20038;-75
2023/10/20 00:51:47;;;;;;;30.45;14.95;;;;;;;;;;2064967;28;20042;-76
2023/10/20 00:53:09;;;;;;;26.88;15.57;;;;;;;;;;2065431;28;20482;-75
2023/10/20 00:54:30;;;;;;;28.88;15.00;;;;;;;;;;2066779;28;20034;-75
2023/10/20 00:55:52;;;;;;;26.58;14.35;;;;;;;;;;2055612;28;20047;-75
2023/10/20 00:57:16;;;;;;;24.00;14.50;;;;;;;;;;2065565;28;20061;-75
2023/10/20 00:58:37;;;;;;;26.80;15.32;;;;;;;;;;2069808;28;20029;-75
2023/10/20 00:59:58;;;;;;;27.58;14.50;;;;;;;;;;2075347;28;20029;-74
2023/10/20 01:01:19;;;;;;;27.08;15.43;;;;;;;;;;2072263;28;20022;-75
2023/10/20 01:02:40;;;;;;;24.58;15.30;;;;;;;;;;2061518;28;20038;-75
2023/10/20 01:04:01;;;;;;;28.75;14.48;;;;;;;;;;2070435;28;20478;-74
2023/10/20 01:05:22;;;;;;;31.45;14.95;;;;;;;;;;2063562;28;20402;-75
2023/10/20 01:06:43;;;;;;;26.38;14.43;;;;;;;;;;2062913;28;20031;-74
2023/10/20 01:08:04;;;;;;;24.42;14.55;;;;;;;;;;2058602;28;20058;-75
2023/10/20 01:09:26;;;;;;;29.65;14.98;;;;;;;;;;2048372;28;20086;-75
2023/10/20 01:10:46;;;;;;;33.38;16.23;;;;;;;;;;2057768;28;20038;-76
2023/10/20 01:12:07;;;;;;;27.42;14.95;;;;;;;;;;2051210;28;20027;-75
2023/10/20 01:13:28;;;;;;;31.13;17.27;;;;;;;;;;2065310;28;20512;-76
2023/10/20 01:14:49;;;;;;;30.33;14.75;;;;;;;;;;2059519;28;20038;-75
2023/10/20 01:16:10;;;;;;;28.42;15.88;;;;;;;;;;2054423;28;20070;-75
2023/10/20 01:17:31;;;;;;;29.52;15.43;;;;;;;;;;2063238;28;20065;-75
2023/10/20 01:18:52;;;;;;;27.83;16.05;;;;;;;;;;2068928;28;20054;-75
2023/10/20 01:20:13;;;;;;;28.63;15.82;;;;;;;;;;2069587;28;20026;-75
2023/10/20 01:21:33;;;;;;;30.27;15.85;;;;;;;;;;2069115;28;20409;-75
2023/10/20 01:22:54;;;;;;;25.85;15.48;;;;;;;;;;2073395;28;20026;-75
2023/10/20 01:24:15;;;;;;;29.10;16.73;;;;;;;;;;2057447;28;20058;-75
2023/10/20 01:25:36;;;;;;;30.55;16.63;;;;;;;;;;2068366;28;20517;-75
2023/10/20 01:26:57;;;;;;;28.95;14.90;;;;;;;;;;2062610;28;20034;-75
2023/10/20 01:28:19;;;;;;;29.30;15.43;;;;;;;;;;2056068;28;20027;-75
2023/10/20 01:29:40;;;;;;;31.02;14.43;;;;;;;;;;2056763;28;20042;-75
2023/10/20 01:31:01;;;;;;;26.27;14.95;;;;;;;;;;2056886;28;20143;-75
2023/10/20 01:32:21;;;;;;;27.83;16.80;;;;;;;;;;2058083;28;20395;-75
2023/10/20 01:33:42;;;;;;;28.98;15.65;;;;;;;;;;2064732;28;20034;-75
2023/10/20 01:35:04;;;;;;;31.00;16.17;;;;;;;;;;2058954;28;20031;-74
2023/10/20 01:36:24;;;;;;;31.48;14.98;;;;;;;;;;2060017;28;20031;-75
2023/10/20 01:37:46;;;;;;;29.02;15.82;;;;;;;;;;2060752;28;20057;-75
2023/10/20 01:39:08;;;;;;;29.48;15.45;;;;;;;;;;2060965;28;20022;-74
2023/10/20 01:40:29;;;;;;;32.60;16.15;;;;;;;;;;2056608;28;20030;-75
2023/10/20 01:41:50;;;;;;;30.13;16.95;;;;;;;;;;2055939;28;20454;-75
2023/10/20 01:43:10;;;;;;;32.92;16.20;;;;;;;;;;2058516;28;20034;-76
2023/10/20 01:44:31;;;;;;;29.70;15.80;;;;;;;;;;2057736;28;20031;-75
2023/10/20 01:45:53;;;;;;;29.77;15.40;;;;;;;;;;2052733;28;20023;-75
2023/10/20 01:47:14;;;;;;;28.50;16.55;;;;;;;;;;2060300;28;20105;-75
2023/10/20 01:48:35;;;;;;;34.40;16.20;;;;;;;;;;2060191;28;20036;-75
2023/10/20 01:49:55;;;;;;;30.58;17.17;;;;;;;;;;2057601;28;20026;-75
2023/10/20 01:51:17;;;;;;;31.27;18.05;;;;;;;;;;2058163;28;20467;-75
2023/10/20 01:52:38;;;;;;;26.60;15.63;;;;;;;;;;2057290;28;20114;-75
2023/10/20 01:53:59;;;;;;;31.17;18.00;;;;;;;;;;2059839;28;20027;-75
2023/10/20 01:55:20;;;;;;;32.05;16.58;;;;;;;;;;2057575;28;20659;-75
2023/10/20 01:56:41;;;;;;;26.52;15.73;;;;;;;;;;2063180;28;20042;-75
2023/10/20 01:58:02;;;;;;;31.80;16.02;;;;;;;;;;2063726;28;20220;-75
2023/10/20 01:59:23;;;;;;;29.80;15.77;;;;;;;;;;2062695;28;20489;-75
2023/10/20 02:00:48;;;;;;;27.35;15.60;;;;;;;;;;2064388;28;20501;-75
2023/10/20 02:02:08;;;;;;;29.38;16.25;;;;;;;;;;2065353;28;20394;-75
2023/10/20 02:03:30;;;;;;;30.23;16.55;;;;;;;;;;2064881;28;20031;-75
2023/10/20 02:04:51;;;;;;;31.20;18.13;;;;;;;;;;2059999;28;20030;-76
2023/10/20 02:06:12;;;;;;;33.55;16.02;;;;;;;;;;2057271;28;20157;-75
2023/10/20 02:07:33;;;;;;;33.60;17.50;;;;;;;;;;2072757;28;20026;-75
2023/10/20 02:08:54;;;;;;;33.00;15.95;;;;;;;;;;2069838;28;20030;-75
2023/10/20 02:10:15;;;;;;;29.70;16.15;;;;;;;;;;2058275;28;20035;-75
2023/10/20 02:11:36;;;;;;;32.08;16.67;;;;;;;;;;2059727;28;20038;-75
2023/10/20 02:12:57;;;;;;;37.70;16.65;;;;;;;;;;2062538;28;20027;-76
2023/10/20 02:14:18;;;;;;;34.92;18.35;;;;;;;;;;2063236;28;20035;-75
2023/10/20 02:15:44;;;;;;;32.70;16.88;;;;;;;;;;2070221;28;20038;-75
2023/10/20 02:17:05;;;;;;;35.85;17.45;;;;;;;;;;2064107;28;20034;-76
2023/10/20 02:18:26;;;;;;;32.60;17.88;;;;;;;;;;2061792;28;20038;-75
2023/10/20 02:19:47;;;;;;;32.67;17.35;;;;;;;;;;2059561;28;20031;-75
2023/10/20 02:21:09;;;;;;;32.42;18.77;;;;;;;;;;2065092;28;20030;-75
2023/10/20 02:22:30;;;;;;;31.40;17.35;;;;;;;;;;2056498;28;20070;-75
2023/10/20 02:23:51;;;;;;;31.48;15.75;;;;;;;;;;2069272;28;20102;-75
2023/10/20 02:25:12;;;;;;;30.33;16.33;;;;;;;;;;2072260;28;20034;-75
2023/10/20 02:26:33;;;;;;;31.40;17.17;;;;;;;;;;2067935;28;20078;-76
2023/10/20 02:27:54;;;;;;;35.28;17.95;;;;;;;;;;2061368;28;20192;-75
2023/10/20 02:29:15;;;;;;;39.22;19.38;;;;;;;;;;2062735;28;20054;-75
2023/10/20 02:30:36;;;;;;;38.10;19.00;;;;;;;;;;2060559;28;20026;-75
2023/10/20 02:31:56;;;;;;;40.78;19.05;;;;;;;;;;2059184;28;20034;-75
2023/10/20 02:33:17;;;;;;;36.40;18.05;;;;;;;;;;2058607;28;20038;-75
2023/10/20 02:34:38;;;;;;;32.80;18.20;;;;;;;;;;2068077;28;20525;-74
2023/10/20 02:35:59;;;;;;;32.55;17.73;;;;;;;;;;2055826;28;20043;-75
2023/10/20 02:37:20;;;;;;;36.20;19.25;;;;;;;;;;2056744;28;20039;-75
2023/10/20 02:38:41;;;;;;;37.45;18.05;;;;;;;;;;2056887;28;20500;-74
2023/10/20 02:40:04;;;;;;;33.47;17.52;;;;;;;;;;2052564;28;20031;-75
2023/10/20 02:41:25;;;;;;;37.70;20.30;;;;;;;;;;2053775;28;20023;-75
2023/10/20 02:42:46;;;;;;;40.97;19.38;;;;;;;;;;2064013;28;20034;-75
2023/10/20 02:44:07;;;;;;;32.70;17.95;;;;;;;;;;2055416;28;20167;-76
2023/10/20 02:45:28;;;;;;;33.65;18.60;;;;;;;;;;2049481;28;20027;-74
2023/10/20 02:46:49;;;;;;;34.03;18.45;;;;;;;;;;2059169;28;20027;-76
2023/10/20 02:48:10;;;;;;;35.40;18.38;;;;;;;;;;2062515;28;20045;-75
2023/10/20 02:49:31;;;;;;;34.78;18.52;;;;;;;;;;2062751;28;20046;-75
2023/10/20 02:50:52;;;;;;;36.78;18.48;;;;;;;;;;2065136;28;20022;-74
2023/10/20 02:52:13;;;;;;;41.22;19.60;;;;;;;;;;2063419;28;20536;-75
2023/10/20 02:53:34;;;;;;;34.15;18.20;;;;;;;;;;2064830;28;20042;-74
2023/10/20 02:54:55;;;;;;;35.28;18.52;;;;;;;;;;2061033;28;20489;-75
2023/10/20 02:56:16;;;;;;;36.08;17.35;;;;;;;;;;2059816;28;20042;-76
2023/10/20 02:57:38;;;;;;;34.55;17.30;;;;;;;;;;2062502;28;20057;-75
2023/10/20 02:58:58;;;;;;;35.93;18.33;;;;;;;;;;2063797;28;20033;-75
2023/10/20 03:00:21;;;;;;;34.83;18.38;;;;;;;;;;2069409;28;20478;-76
2023/10/20 03:01:43;;;;;;;33.95;19.00;;;;;;;;;;2062733;28;20502;-76
2023/10/20 03:03:04;;;;;;;33.92;19.38;;;;;;;;;;2064250;28;20023;-75
2023/10/20 03:04:25;;;;;;;33.40;17.70;;;;;;;;;;2061808;28;20396;-75
2023/10/20 03:05:46;;;;;;;39.35;21.42;;;;;;;;;;2068855;28;20030;-76
2023/10/20 03:07:08;;;;;;;38.00;18.25;;;;;;;;;;2062564;28;20042;-76
2023/10/20 03:08:29;;;;;;;33.72;18.52;;;;;;;;;;2073774;28;20488;-75
2023/10/20 03:09:51;;;;;;;33.17;17.57;;;;;;;;;;2074892;28;20037;-76
2023/10/20 03:11:12;;;;;;;33.15;18.80;;;;;;;;;;2060650;28;20400;-75
2023/10/20 03:12:33;;;;;;;33.55;18.58;;;;;;;;;;2057743;28;20039;-75
2023/10/20 03:13:54;;;;;;;31.35;17.08;;;;;;;;;;2064942;28;20453;-76
2023/10/20 03:15:15;;;;;;;29.60;17.50;;;;;;;;;;2061404;28;20101;-75
2023/10/20 03:16:42;;;;;;;34.53;17.95;;;;;;;;;;2057889;28;20062;-76
2023/10/20 03:18:03;;;;;;;32.65;18.95;;;;;;;;;;2057668;28;20035;-75
2023/10/20 03:19:24;;;;;;;36.67;18.10;;;;;;;;;;2054768;28;20031;-76
2023/10/20 03:20:46;;;;;;;40.28;20.50;;;;;;;;;;2056853;28;20055;-75
2023/10/20 03:22:08;;;;;;;34.97;18.50;;;;;;;;;;2061334;28;20022;-75
2023/10/20 03:23:29;;;;;;;36.22;17.92;;;;;;;;;;2062202;28;20023;-74
2023/10/20 03:24:50;;;;;;;36.00;17.67;;;;;;;;;;2058348;28;20454;-76
2023/10/20 03:26:11;;;;;;;32.65;17.45;;;;;;;;;;2054794;28;20035;-76
2023/10/20 03:27:32;;;;;;;30.13;16.50;;;;;;;;;;2055110;28;20035;-75
2023/10/20 03:28:53;;;;;;;34.95;18.13;;;;;;;;;;2056686;28;20043;-75
2023/10/20 03:30:17;;;;;;;33.83;18.25;;;;;;;;;;2055706;28;20066;-75
2023/10/20 03:31:38;;;;;;;31.52;18.13;;;;;;;;;;2053864;28;20038;-75
2023/10/20 03:33:00;;;;;;;38.00;18.85;;;;;;;;;;2056543;28;20498;-75
2023/10/20 03:34:21;;;;;;;40.72;19.58;;;;;;;;;;2056071;28;20031;-75
2023/10/20 03:35:42;;;;;;;37.95;18.73;;;;;;;;;;2048682;29;20491;-76
2023/10/20 03:37:03;;;;;;;32.15;18.08;;;;;;;;;;2049792;28;20062;-75
2023/10/20 03:38:24;;;;;;;39.38;17.52;;;;;;;;;;2063063;28;20512;-75
2023/10/20 03:39:44;;;;;;;34.78;17.85;;;;;;;;;;2056384;28;20066;-76
2023/10/20 03:41:06;;;;;;;33.35;18.10;;;;;;;;;;2055868;28;20031;-75
2023/10/20 03:42:27;;;;;;;37.10;18.77;;;;;;;;;;2050540;28;20030;-75
2023/10/20 03:43:50;;;;;;;40.17;19.80;;;;;;;;;;2057314;28;20035;-75
2023/10/20 03:45:14;;;;;;;37.97;18.20;;;;;;;;;;2054564;28;20034;-77
2023/10/20 03:46:43;;;;;;;35.83;19.10;;;;;;;;;;2051417;28;20038;-75
2023/10/20 03:48:04;;;;;;;35.83;18.88;;;;;;;;;;2054453;28;20145;-75
2023/10/20 03:49:26;;;;;;;38.58;19.13;;;;;;;;;;2055907;28;20359;-76
2023/10/20 03:50:48;;;;;;;37.60;19.38;;;;;;;;;;2055848;28;20031;-76
2023/10/20 03:52:11;;;;;;;44.85;22.02;;;;;;;;;;2058163;28;20025;-75
2023/10/20 03:53:52;;;;;;;34.15;18.10;;;;;;;;;;2059009;28;20046;-76
2023/10/20 03:55:16;;;;;;;38.50;20.08;;;;;;;;;;2048668;29;20473;-75
2023/10/20 03:56:37;;;;;;;40.05;20.45;;;;;;;;;;2050544;28;20041;-75
2023/10/20 03:57:58;;;;;;;33.92;18.00;;;;;;;;;;2055759;28;20422;-75
2023/10/20 03:59:19;;;;;;;33.75;18.20;;;;;;;;;;2053237;28;20027;-76
2023/10/20 04:00:42;;;;;;;36.88;17.92;;;;;;;;;;2057415;28;20555;-76
2023/10/20 04:02:03;;;;;;;34.92;17.85;;;;;;;;;;2055104;28;20027;-76
2023/10/20 04:03:28;;;;;;;36.00;18.85;;;;;;;;;;2061544;28;20031;-76
2023/10/20 04:04:48;;;;;;;37.47;20.08;;;;;;;;;;2064194;28;20556;-76
2023/10/20 04:06:10;;;;;;;34.50;18.90;;;;;;;;;;2062049;28;20042;-76
2023/10/20 04:07:30;;;;;;;43.08;18.92;;;;;;;;;;2056213;28;20038;-76
2023/10/20 04:08:51;;;;;;;35.03;20.45;;;;;;;;;;2054676;28;20497;-76
2023/10/20 04:10:12;;;;;;;38.72;19.83;;;;;;;;;;2051266;28;20081;-76
2023/10/20 04:11:34;;;;;;;38.70;19.40;;;;;;;;;;2056474;28;20043;-76
2023/10/20 04:12:55;;;;;;;35.75;19.30;;;;;;;;;;2054893;28;20039;-74
2023/10/20 04:14:16;;;;;;;35.38;19.73;;;;;;;;;;2069654;28;20448;-75
2023/10/20 04:15:39;;;;;;;48.58;22.58;;;;;;;;;;2059954;28;20027;-75
2023/10/20 04:17:03;;;;;;;38.72;20.17;;;;;;;;;;2055463;28;20046;-76
2023/10/20 04:18:23;;;;;;;41.65;23.92;;;;;;;;;;2057672;28;20038;-75
2023/10/20 04:19:45;;;;;;;39.78;18.88;;;;;;;;;;2055234;28;20039;-76
2023/10/20 04:21:06;;;;;;;36.80;18.15;;;;;;;;;;2055761;28;20027;-77
2023/10/20 04:22:26;;;;;;;36.70;19.50;;;;;;;;;;2059323;28;20031;-77
2023/10/20 04:23:48;;;;;;;34.33;17.98;;;;;;;;;;2058497;28;20027;-76
2023/10/20 04:25:12;;;;;;;45.70;22.77;;;;;;;;;;2055429;28;20031;-76
2023/10/20 04:26:43;;;;;;;39.58;20.02;;;;;;;;;;2054236;28;20410;-76
2023/10/20 04:28:14;;;;;;;33.53;19.00;;;;;;;;;;2054938;28;20038;-77
2023/10/20 04:29:35;;;;;;;40.65;20.52;;;;;;;;;;2056878;28;20150;-75
2023/10/20 04:46:54;;;;;;;41.53;21.80;;;;;;;;;;2061006;28;20034;-76
2023/10/20 04:50:52;;;;;;;42.97;22.35;;;;;;;;;;2054714;28;20042;-76
2023/10/20 04:53:53;;;;;;;39.38;21.65;;;;;;;;;;2064887;28;20365;-76
2023/10/20 04:58:56;;;;;;;39.85;21.58;;;;;;;;;;2059748;28;20038;-76
2023/10/20 05:01:48;;;;;;;42.70;23.85;;;;;;;;;;2055055;28;20035;-76
2023/10/20 05:03:30;;;;;;;41.97;22.52;;;;;;;;;;2054987;28;20027;-76
2023/10/20 05:04:52;;;;;;;44.20;24.95;;;;;;;;;;2057150;28;20108;-76
2023/10/20 05:06:20;;;;;;;39.80;22.40;;;;;;;;;;2063304;28;20037;-76
2023/10/20 05:07:47;;;;;;;49.22;24.30;;;;;;;;;;2061336;28;20481;-75
2023/10/20 05:09:14;;;;;;;43.55;23.10;;;;;;;;;;2049691;28;20109;-75
2023/10/20 05:10:35;;;;;;;45.90;23.20;;;;;;;;;;2054023;28;20022;-75
2023/10/20 05:11:56;;;;;;;44.33;24.90;;;;;;;;;;2057364;28;21419;-76
2023/10/20 05:13:17;;;;;;;44.63;22.27;;;;;;;;;;2060449;28;20046;-76
2023/10/20 05:14:38;;;;;;;43.70;27.08;;;;;;;;;;2052883;28;20094;-75
2023/10/20 05:15:59;;;;;;;42.80;23.13;;;;;;;;;;2055587;28;20501;-75
2023/10/20 05:17:20;;;;;;;44.75;26.15;;;;;;;;;;2062647;28;20046;-76
2023/10/20 05:18:42;;;;;;;42.53;23.55;;;;;;;;;;2070589;28;20046;-76
2023/10/20 05:20:06;;;;;;;44.38;24.65;;;;;;;;;;2068360;28;20383;-76
2023/10/20 05:21:28;;;;;;;42.35;24.73;;;;;;;;;;2065372;28;20564;-77
2023/10/20 05:22:48;;;;;;;41.97;23.15;;;;;;;;;;2063416;28;20027;-75
2023/10/20 05:24:09;;;;;;;40.33;23.15;;;;;;;;;;2057991;28;20062;-76
2023/10/20 05:25:30;;;;;;;42.05;23.75;;;;;;;;;;2061564;28;20038;-76
2023/10/20 05:26:51;;;;;;;42.72;24.35;;;;;;;;;;2060861;28;20490;-75
2023/10/20 05:28:13;;;;;;;43.72;24.35;;;;;;;;;;2061454;28;20042;-75
2023/10/20 05:29:34;;;;;;;43.85;23.08;;;;;;;;;;2067319;28;20089;-76
2023/10/20 05:30:54;;;;;;;45.75;24.45;;;;;;;;;;2058238;28;20031;-76
2023/10/20 05:32:16;;;;;;;39.20;23.35;;;;;;;;;;2053854;28;20039;-76
2023/10/20 05:33:37;;;;;;;41.13;22.43;;;;;;;;;;2060289;28;20103;-76
2023/10/20 05:34:59;;;;;;;42.53;25.23;;;;;;;;;;2054170;28;21082;-76
2023/10/20 05:36:19;;;;;;;45.33;24.77;;;;;;;;;;2057432;28;20039;-76
2023/10/20 05:37:40;;;;;;;44.08;25.67;;;;;;;;;;2071348;28;20045;-75
2023/10/20 05:39:01;;;;;;;41.40;23.10;;;;;;;;;;2075199;28;20494;-75
2023/10/20 05:40:22;;;;;;;43.70;24.88;;;;;;;;;;2067294;28;20034;-76
2023/10/20 05:41:43;;;;;;;41.58;22.83;;;;;;;;;;2064756;28;20413;-76
2023/10/20 05:43:08;;;;;;;43.97;24.90;;;;;;;;;;2064982;28;20023;-76
2023/10/20 05:44:32;;;;;;;42.70;23.83;;;;;;;;;;2070523;28;20037;-75
2023/10/20 05:45:53;;;;;;;39.15;22.88;;;;;;;;;;2060536;28;20039;-76
2023/10/20 05:47:14;;;;;;;38.88;23.08;;;;;;;;;;2063818;28;20035;-76
2023/10/20 05:48:35;;;;;;;42.13;23.38;;;;;;;;;;2067441;28;20477;-76
2023/10/20 05:49:57;;;;;;;45.25;24.95;;;;;;;;;;2065722;28;20026;-75
2023/10/20 05:51:18;;;;;;;43.20;24.88;;;;;;;;;;2059352;28;20034;-76
2023/10/20 05:52:39;;;;;;;42.60;23.10;;;;;;;;;;2065869;28;20038;-76
2023/10/20 05:54:00;;;;;;;40.05;24.15;;;;;;;;;;2065486;28;20049;-75
2023/10/20 05:55:22;;;;;;;38.90;22.25;;;;;;;;;;2063653;28;20035;-76
2023/10/20 05:56:43;;;;;;;;;;;;;;;;;;2063900;28;20053;-75
2023/10/20 05:58:06;;;;;;;42.58;23.35;;;;;;;;;;2062489;28;19961;-76
2023/10/20 05:59:26;;;;;;;38.15;22.48;;;;;;;;;;2058810;28;20120;-75
2023/10/20 06:00:48;;;;;;;49.55;29.30;;;;;;;;;;2068913;28;20045;-76
2023/10/20 06:02:08;;;;;;;40.63;24.73;;;;;;;;;;2065586;28;20034;-75
2023/10/20 06:03:30;;;;;;;44.80;25.67;;;;;;;;;;2063801;28;20034;-74
2023/10/20 06:04:51;;;;;;;44.60;25.83;;;;;;;;;;2062835;28;20454;-75
2023/10/20 06:06:12;;;;;;;42.05;23.08;;;;;;;;;;2064322;28;20027;-75
2023/10/20 06:07:33;;;;;;;46.97;24.98;;;;;;;;;;2071573;28;20042;-75
2023/10/20 06:08:54;;;;;;;40.28;24.92;;;;;;;;;;2074091;28;20040;-75
2023/10/20 06:10:24;;;;;;;43.72;25.67;;;;;;;;;;2070803;28;20038;-75
2023/10/20 06:11:45;;;;;;;43.10;25.40;;;;;;;;;;2062697;28;20092;-74
2023/10/20 06:13:06;;;;;;;44.67;24.95;;;;;;;;;;2065264;28;20037;-74
2023/10/20 06:14:27;;;;;;;45.58;27.05;;;;;;;;;;2066140;28;20410;-74
2023/10/20 06:15:47;;;;;;;43.05;24.00;;;;;;;;;;2061090;28;20027;-74
2023/10/20 06:17:09;;;;;;;47.63;25.10;;;;;;;;;;2061017;28;20053;-74
2023/10/20 06:18:29;;;;;;;45.25;23.98;;;;;;;;;;2067273;28;20096;-74
2023/10/20 06:19:50;;;;;;;47.65;27.35;;;;;;;;;;2061727;28;20034;-74
2023/10/20 06:21:13;;;;;;;42.45;24.63;;;;;;;;;;2057050;28;20090;-74
2023/10/20 06:22:34;;;;;;;44.58;24.08;;;;;;;;;;2063857;28;20037;-74
2023/10/20 06:23:54;;;;;;;45.15;24.60;;;;;;;;;;2070717;28;20041;-74
2023/10/20 06:25:16;;;;;;;43.85;24.70;;;;;;;;;;2077420;28;20025;-74
2023/10/20 06:26:37;;;;;;;47.00;24.73;;;;;;;;;;2066934;28;20384;-75
2023/10/20 06:27:58;;;;;;;46.53;23.58;;;;;;;;;;2060489;28;20041;-74
2023/10/20 06:29:41;;;;;;;45.97;24.52;;;;;;;;;;2055984;28;20059;-75
2023/10/20 06:31:21;;;;;;;41.88;23.63;;;;;;;;;;2069859;28;20042;-74
2023/10/20 06:32:43;;;;;;;44.88;23.70;;;;;;;;;;2062684;28;20031;-73
2023/10/20 06:34:23;;;;;;;47.75;23.20;;;;;;;;;;2063962;28;20455;-74
2023/10/20 06:35:50;;;;;;;41.45;22.58;;;;;;;;;;2064559;28;20109;-74
2023/10/20 06:38:14;;;;;;;42.47;23.50;;;;;;;;;;2063280;28;20046;-73
2023/10/20 06:39:03;;;;;;;39.92;21.73;;;;;;;;;;2065066;28;20477;-73
2023/10/20 06:40:24;;;;;;;42.22;22.70;;;;;;;;;;2065038;28;20046;-73
2023/10/20 06:41:45;;;;;;;40.90;22.58;;;;;;;;;;2072392;28;21008;-74
2023/10/20 06:43:06;;;;;;;43.90;24.05;;;;;;;;;;2060959;28;20458;-74
2023/10/20 06:44:28;;;;;;;41.55;22.55;;;;;;;;;;2065633;28;20026;-74
2023/10/20 06:45:59;;;;;;;46.95;23.40;;;;;;;;;;2061398;28;20030;-74
2023/10/20 06:47:21;;;;;;;41.75;25.00;;;;;;;;;;2063876;28;20047;-74
2023/10/20 06:48:42;;;;;;;44.85;22.58;;;;;;;;;;2063145;28;20042;-74
2023/10/20 06:50:03;;;;;;;50.80;27.88;;;;;;;;;;2065818;28;20398;-74
2023/10/20 06:51:25;;;;;;;45.72;25.10;;;;;;;;;;2064322;28;20034;-74
2023/10/20 06:52:46;;;;;;;44.00;21.85;;;;;;;;;;2065513;28;20501;-74
2023/10/20 06:54:06;;;;;;;42.17;23.15;;;;;;;;;;2065187;28;20038;-74
2023/10/20 06:55:28;;;;;;;53.53;23.98;;;;;;;;;;2063535;28;20026;-74
2023/10/20 06:56:48;;;;;;;44.95;23.63;;;;;;;;;;2063509;28;20038;-74
2023/10/20 06:58:09;;;;;;;36.75;20.38;;;;;;;;;;2062538;28;20038;-75
2023/10/20 06:59:30;;;;;;;47.25;23.98;;;;;;;;;;2065744;28;20104;-74
2023/10/20 07:00:53;;;;;;;41.08;21.15;;;;;;;;;;2061149;28;20281;-74
2023/10/20 07:02:14;;;;;;;37.45;20.35;;;;;;;;;;2055815;28;20034;-74
2023/10/20 07:03:35;;;;;;;39.13;20.60;;;;;;;;;;2063373;28;20112;-74
2023/10/20 07:04:56;;;;;;;38.40;20.58;;;;;;;;;;2063422;28;20037;-74
2023/10/20 07:06:17;;;;;;;42.22;23.67;;;;;;;;;;2060743;28;20050;-75
2023/10/20 07:07:38;;;;;;;39.90;20.15;;;;;;;;;;2057764;28;20042;-74
2023/10/20 07:08:58;;;;;;;37.30;19.45;;;;;;;;;;2062462;28;20038;-73
2023/10/20 07:10:21;;;;;;;35.35;20.52;;;;;;;;;;2055641;28;20434;-74
2023/10/20 07:11:42;;;;;;;40.10;20.58;;;;;;;;;;2064543;28;20026;-73
2023/10/20 07:13:07;;;;;;;40.38;22.33;;;;;;;;;;2066381;28;20024;-74
2023/10/20 07:14:28;;;;;;;36.97;18.98;;;;;;;;;;2072642;28;20030;-74
2023/10/20 07:15:54;;;;;;;43.05;21.60;;;;;;;;;;2063664;28;20031;-74
2023/10/20 07:17:15;;;;;;;38.05;20.75;;;;;;;;;;2060033;28;20034;-74
2023/10/20 07:18:36;;;;;;;38.63;19.75;;;;;;;;;;2064313;28;20104;-73
2023/10/20 07:19:57;;;;;;;41.38;20.98;;;;;;;;;;2055487;28;20026;-74
2023/10/20 07:21:18;;;;;;;33.17;18.20;;;;;;;;;;2060900;28;20023;-74
2023/10/20 07:22:39;;;;;;;36.95;17.88;;;;;;;;;;2065706;28;20023;-75
2023/10/20 07:24:02;;;;;;;31.90;18.65;;;;;;;;;;2056898;28;20034;-74
2023/10/20 07:25:23;;;;;;;37.20;19.30;;;;;;;;;;2063414;28;20033;-74
2023/10/20 07:26:45;;;;;;;35.00;18.00;;;;;;;;;;2062619;28;20026;-74
2023/10/20 07:28:07;;;;;;;34.87;18.97;;;;;;;;;;2060314;28;20266;-74
2023/10/20 07:29:28;;;;;;;34.22;18.20;;;;;;;;;;2066531;28;20472;-74
2023/10/20 07:30:49;;;;;;;33.22;18.17;;;;;;;;;;2063984;28;20033;-73
2023/10/20 07:32:12;;;;;;;33.25;19.30;;;;;;;;;;2061806;28;20108;-73
2023/10/20 07:33:33;;;;;;;32.05;17.65;;;;;;;;;;2068424;28;20033;-75
2023/10/20 07:34:54;;;;;;;30.90;17.67;;;;;;;;;;2056588;28;20039;-74
2023/10/20 07:36:15;;;;;;;31.17;17.58;;;;;;;;;;2063478;28;20529;-74
2023/10/20 07:37:36;;;;;;;33.40;18.27;;;;;;;;;;2060941;28;20046;-74
2023/10/20 07:38:57;;;;;;;31.15;16.77;;;;;;;;;;2071551;28;20397;-75
2023/10/20 07:40:18;;;;;;;38.03;16.83;;;;;;;;;;2064772;28;20031;-74
2023/10/20 07:41:40;;;;;;;33.70;18.70;;;;;;;;;;2066389;28;20454;-75
2023/10/20 07:43:03;;;;;;;30.50;17.65;;;;;;;;;;2063827;28;20955;-74
2023/10/20 07:44:24;;;;;;;30.42;17.25;;;;;;;;;;2060577;28;20101;-74
2023/10/20 07:45:46;;;;;;;33.40;18.17;;;;;;;;;;2061192;28;20442;-74
2023/10/20 07:47:06;;;;;;;28.23;15.70;;;;;;;;;;2064153;28;20027;-74
2023/10/20 07:48:27;;;;;;;35.55;16.73;;;;;;;;;;2062936;28;20433;-74
2023/10/20 07:49:48;;;;;;;28.70;16.10;;;;;;;;;;2063116;28;20031;-74
2023/10/20 07:51:09;;;;;;;30.33;15.43;;;;;;;;;;2064944;28;20426;-74
2023/10/20 07:52:32;;;;;;;27.83;15.63;;;;;;;;;;2060799;28;20061;-74
2023/10/20 07:53:53;;;;;;;25.40;15.05;;;;;;;;;;2065302;28;20041;-75
2023/10/20 07:55:14;;;;;;;29.20;16.10;;;;;;;;;;2063677;28;20034;-76
2023/10/20 07:56:35;;;;;;;27.85;15.02;;;;;;;;;;2068835;28;20033;-75
2023/10/20 07:57:56;;;;;;;33.03;17.42;;;;;;;;;;2060201;28;20138;-75
2023/10/20 07:59:18;;;;;;;33.65;18.25;;;;;;;;;;2056172;28;20030;-75
2023/10/20 08:00:38;;;;;;;24.70;15.07;;;;;;;;;;2056519;28;20066;-73
2023/10/20 08:01:59;;;;;;;26.33;14.90;;;;;;;;;;2063323;28;20069;-74
2023/10/20 08:03:20;;;;;;;29.02;18.33;;;;;;;;;;2069410;28;20087;-75
2023/10/20 08:04:41;;;;;;;26.27;14.57;;;;;;;;;;2071181;28;20018;-75
2023/10/20 08:06:03;;;;;;;24.02;15.23;;;;;;;;;;2045397;28;20051;-75
2023/10/20 08:07:24;;;;;;;24.98;14.50;;;;;;;;;;2057069;28;20039;-74
2023/10/20 08:08:45;;;;;;;27.02;14.25;;;;;;;;;;2066441;28;20398;-74
2023/10/20 08:10:07;;;;;;;27.23;15.65;;;;;;;;;;2055883;28;20109;-75
2023/10/20 08:11:28;;;;;;;25.05;14.68;;;;;;;;;;2064246;28;20386;-74
2023/10/20 08:12:49;;;;;;;22.70;13.20;;;;;;;;;;2063574;28;20033;-75
2023/10/20 08:14:09;;;;;;;19.35;12.27;;;;;;;;;;2057522;28;20038;-75
2023/10/20 08:15:35;;;;;;;22.60;14.23;;;;;;;;;;2060096;28;20378;-75
2023/10/20 08:16:56;;;;;;;21.10;13.38;;;;;;;;;;2062971;28;20074;-75
2023/10/20 08:18:17;;;;;;;24.17;12.70;;;;;;;;;;2065710;28;20038;-75
2023/10/20 08:19:37;;;;;;;20.95;11.85;;;;;;;;;;2063046;28;20046;-76
2023/10/20 08:21:08;;;;;;;19.00;12.65;;;;;;;;;;2063801;28;20398;-75
2023/10/20 08:22:29;;;;;;;20.70;12.30;;;;;;;;;;2071423;28;20073;-76